createdAt,value
2022-12-01T00:00:20.898Z,1.80
2022-12-01T00:03:24.049Z,1.76
2022-12-01T00:06:26.699Z,1.75
2022-12-01T00:09:48.261Z,1.73
2022-12-01T00:12:53.589Z,1.71
2022-12-01T00:15:57.211Z,1.69
2022-12-01T00:19:00.152Z,1.67
2022-12-01T00:22:03.087Z,1.72
2022-12-01T00:25:05.647Z,1.75
2022-12-01T00:28:08.351Z,1.70
2022-12-01T00:31:12.164Z,1.76
2022-12-01T00:34:25.398Z,1.66
2022-12-01T00:37:30.543Z,1.68
2022-12-01T00:40:33.429Z,1.64
2022-12-01T00:43:36.687Z,1.66
2022-12-01T00:46:39.514Z,1.64
2022-12-01T00:49:42.260Z,1.57
2022-12-01T00:52:45.012Z,1.60
2022-12-01T00:55:47.610Z,1.54
2022-12-01T00:58:50.458Z,1.49
2022-12-01T01:01:52.989Z,1.50
2022-12-01T01:04:55.821Z,1.50
2022-12-01T01:07:58.432Z,1.46
2022-12-01T01:11:01.905Z,1.45
2022-12-01T01:14:04.437Z,1.44
2022-12-01T01:17:07.261Z,1.43
2022-12-01T01:20:10.333Z,1.43
2022-12-01T01:23:14.097Z,1.43
2022-12-01T01:26:18.166Z,1.43
2022-12-01T01:29:21.224Z,1.42
2022-12-01T01:32:25.206Z,1.40
2022-12-01T01:35:27.934Z,1.37
2022-12-01T01:38:31.316Z,1.38
2022-12-01T01:41:34.040Z,1.34
2022-12-01T01:44:56.931Z,1.30
2022-12-01T01:47:59.964Z,1.27
2022-12-01T01:51:02.715Z,1.25
2022-12-01T01:54:20.032Z,1.23
2022-12-01T01:57:29.183Z,1.21
2022-12-01T02:00:36.115Z,1.16
2022-12-01T02:03:40.007Z,1.14
2022-12-01T02:06:42.441Z,1.13
2022-12-01T02:09:46.117Z,1.07
2022-12-01T02:13:03.179Z,1.01
2022-12-01T02:16:26.724Z,1.04
2022-12-01T02:20:19.878Z,1.02
2022-12-01T02:23:42.836Z,0.96
2022-12-01T02:26:57.180Z,0.94
2022-12-01T02:30:10.759Z,0.93
2022-12-01T02:33:22.388Z,0.91
2022-12-01T02:36:38.075Z,0.89
2022-12-01T02:39:58.079Z,0.86
2022-12-01T02:43:05.528Z,0.86
2022-12-01T02:46:12.853Z,0.81
2022-12-01T02:49:25.557Z,0.76
2022-12-01T02:52:28.948Z,0.74
2022-12-01T02:55:31.725Z,0.67
2022-12-01T02:58:34.365Z,0.53
2022-12-01T03:02:02.099Z,0.59
2022-12-01T03:05:11.217Z,0.53
2022-12-01T03:08:27.641Z,0.50
2022-12-01T03:11:38.571Z,0.48
2022-12-01T03:14:54.327Z,0.46
2022-12-01T03:18:22.853Z,0.47
2022-12-01T03:21:41.524Z,0.51
2022-12-01T03:24:46.930Z,0.55
2022-12-01T03:28:20.128Z,0.57
2022-12-01T03:31:21.113Z,0.57
2022-12-01T03:34:27.655Z,0.57
2022-12-01T03:37:33.872Z,0.54
2022-12-01T03:40:38.827Z,0.49
2022-12-01T03:43:43.365Z,0.44
2022-12-01T03:47:06.964Z,0.38
2022-12-01T03:50:13.435Z,0.36
2022-12-01T03:53:20.433Z,0.32
2022-12-01T03:56:26.439Z,0.25
2022-12-01T03:59:29.671Z,0.19
2022-12-01T04:02:32.263Z,0.11
2022-12-01T04:05:35.168Z,0.03
2022-12-01T04:08:38.123Z,-0.03
2022-12-01T04:11:59.819Z,-0.05
2022-12-01T04:15:14.426Z,-0.04
2022-12-01T04:18:17.571Z,-0.10
2022-12-01T04:21:20.022Z,-0.15
2022-12-01T04:24:22.971Z,-0.22
2022-12-01T04:27:25.718Z,-0.25
2022-12-01T04:30:28.447Z,-0.23
2022-12-01T04:33:30.866Z,-0.23
2022-12-01T04:36:34.685Z,-0.24
2022-12-01T04:39:37.294Z,-0.27
2022-12-01T04:42:40.093Z,-0.31
2022-12-01T04:45:42.618Z,-0.35
2022-12-01T04:48:45.443Z,-0.40
2022-12-01T04:51:48.720Z,-0.38
2022-12-01T04:54:51.427Z,-0.42
2022-12-01T04:57:54.082Z,-0.43
2022-12-01T05:01:02.991Z,-0.47
2022-12-01T05:04:05.580Z,-0.56
2022-12-01T05:07:08.607Z,-0.58
2022-12-01T05:10:13.703Z,-0.59
2022-12-01T05:13:16.424Z,-0.66
2022-12-01T05:16:21.780Z,-0.68
2022-12-01T05:19:47.998Z,-0.69
2022-12-01T05:23:10.754Z,-0.64
2022-12-01T05:26:14.932Z,-0.61
2022-12-01T05:29:17.423Z,-0.61
2022-12-01T05:32:20.160Z,-0.57
2022-12-01T05:35:22.610Z,-0.55
2022-12-01T05:38:25.561Z,-0.55
2022-12-01T05:41:28.040Z,-0.54
2022-12-01T05:44:30.725Z,-0.55
2022-12-01T05:47:33.158Z,-0.54
2022-12-01T05:50:38.646Z,-0.51
2022-12-01T05:53:42.973Z,-0.50
2022-12-01T05:56:45.724Z,-0.50
2022-12-01T05:59:48.685Z,-0.51
2022-12-01T06:02:51.752Z,-0.52
2022-12-01T06:05:54.452Z,-0.53
2022-12-01T06:08:57.128Z,-0.55
2022-12-01T06:11:59.915Z,-0.56
2022-12-01T06:15:02.803Z,-0.62
2022-12-01T06:18:05.791Z,-0.64
2022-12-01T06:21:08.375Z,-0.67
2022-12-01T06:24:11.194Z,-0.66
2022-12-01T06:27:13.717Z,-0.69
2022-12-01T06:30:16.681Z,-0.69
2022-12-01T06:33:19.229Z,-0.63
2022-12-01T06:36:22.150Z,-0.60
2022-12-01T06:39:24.772Z,-0.53
2022-12-01T06:42:30.632Z,-0.52
2022-12-01T06:45:33.264Z,-0.55
2022-12-01T06:48:36.147Z,-0.44
2022-12-01T06:51:39.311Z,-0.38
2022-12-01T06:54:42.115Z,-0.29
2022-12-01T06:57:44.970Z,-0.19
2022-12-01T07:00:52.123Z,-0.19
2022-12-01T07:03:55.341Z,0.07
2022-12-01T07:06:58.328Z,0.19
2022-12-01T07:10:01.021Z,0.32
2022-12-01T07:13:03.819Z,0.39
2022-12-01T07:16:07.571Z,0.44
2022-12-01T07:19:10.724Z,0.53
2022-12-01T07:22:13.367Z,0.61
2022-12-01T07:25:16.358Z,0.66
2022-12-01T07:28:18.928Z,0.70
2022-12-01T07:31:21.878Z,0.73
2022-12-01T07:34:24.525Z,0.88
2022-12-01T07:37:27.431Z,0.98
2022-12-01T07:40:30.014Z,1.13
2022-12-01T07:43:34.027Z,1.26
2022-12-01T07:46:37.272Z,1.38
2022-12-01T07:49:40.091Z,1.51
2022-12-01T07:52:42.683Z,1.56
2022-12-01T07:55:49.652Z,1.58
2022-12-01T07:58:52.205Z,1.60
2022-12-01T08:01:55.162Z,1.62
2022-12-01T08:04:58.134Z,1.65
2022-12-01T08:08:00.840Z,1.73
2022-12-01T08:11:06.547Z,1.80
2022-12-01T08:14:09.043Z,1.91
2022-12-01T08:17:11.886Z,1.96
2022-12-01T08:20:18.463Z,1.96
2022-12-01T08:23:25.421Z,1.90
2022-12-01T08:26:27.932Z,1.88
2022-12-01T08:29:30.722Z,1.92
2022-12-01T08:32:33.240Z,1.94
2022-12-01T08:35:36.834Z,2.03
2022-12-01T08:38:39.334Z,2.01
2022-12-01T08:41:42.311Z,2.18
2022-12-01T08:44:44.943Z,2.18
2022-12-01T08:47:47.822Z,2.47
2022-12-01T08:50:50.569Z,2.76
2022-12-01T08:53:53.383Z,3.03
2022-12-01T08:56:55.916Z,3.33
2022-12-01T08:59:58.772Z,3.46
2022-12-01T09:03:01.525Z,3.63
2022-12-01T09:06:08.697Z,3.64
2022-12-01T09:09:13.748Z,3.69
2022-12-01T09:12:16.809Z,3.69
2022-12-01T09:15:19.351Z,3.51
2022-12-01T09:18:22.545Z,3.39
2022-12-01T09:21:32.450Z,3.13
2022-12-01T09:24:35.674Z,3.02
2022-12-01T09:27:38.111Z,2.87
2022-12-01T09:30:41.034Z,2.83
2022-12-01T09:33:43.604Z,2.89
2022-12-01T09:36:47.453Z,2.92
2022-12-01T09:39:50.203Z,2.96
2022-12-01T09:42:53.258Z,2.98
2022-12-01T09:46:02.503Z,3.06
2022-12-01T09:49:06.963Z,3.17
2022-12-01T09:52:16.206Z,3.30
2022-12-01T09:55:21.939Z,3.39
2022-12-01T09:58:30.653Z,3.48
2022-12-01T10:01:35.879Z,3.46
2022-12-01T10:04:42.711Z,3.49
2022-12-01T10:08:06.297Z,3.49
2022-12-01T10:11:35.486Z,3.40
2022-12-01T10:14:38.076Z,3.23
2022-12-01T10:17:50.828Z,3.30
2022-12-01T10:21:08.880Z,3.50
2022-12-01T10:25:00.921Z,3.62
2022-12-01T10:28:37.636Z,3.78
2022-12-01T10:31:54.511Z,4.01
2022-12-01T10:34:57.666Z,4.35
2022-12-01T10:38:03.127Z,4.42
2022-12-01T10:41:09.403Z,4.48
2022-12-01T10:44:12.602Z,4.61
2022-12-01T10:47:23.704Z,4.70
2022-12-01T10:50:28.096Z,4.89
2022-12-01T10:53:33.982Z,4.77
2022-12-01T10:56:41.944Z,4.81
2022-12-01T10:59:51.747Z,4.77
2022-12-01T11:02:55.224Z,4.76
2022-12-01T11:06:00.090Z,4.97
2022-12-01T11:09:05.603Z,4.91
2022-12-01T11:12:16.395Z,4.85
2022-12-01T11:15:29.320Z,4.81
2022-12-01T11:18:34.407Z,4.81
2022-12-01T11:21:49.217Z,4.96
2022-12-01T11:25:00.748Z,5.04
2022-12-01T11:28:04.361Z,4.96
2022-12-01T11:31:08.969Z,4.94
2022-12-01T11:34:32.254Z,4.87
2022-12-01T11:37:50.492Z,5.02
2022-12-01T11:41:03.295Z,4.91
2022-12-01T11:47:30.733Z,4.88
2022-12-01T11:50:40.393Z,5.01
2022-12-01T11:53:43.783Z,5.12
2022-12-01T11:56:52.790Z,5.10
2022-12-01T12:00:25.349Z,5.06
2022-12-01T12:04:01.079Z,5.12
2022-12-01T12:07:45.860Z,5.15
2022-12-01T12:11:11.813Z,5.12
2022-12-01T12:14:29.446Z,5.00
2022-12-01T12:17:58.651Z,5.04
2022-12-01T12:21:12.706Z,5.11
2022-12-01T12:24:15.470Z,5.17
2022-12-01T12:27:24.332Z,5.25
2022-12-01T12:30:30.035Z,5.38
2022-12-01T12:34:03.754Z,5.43
2022-12-01T12:37:27.926Z,5.36
2022-12-01T12:40:33.856Z,5.26
2022-12-01T12:44:07.849Z,5.17
2022-12-01T12:47:19.430Z,5.02
2022-12-01T12:50:28.218Z,4.89
2022-12-01T12:53:43.855Z,4.79
2022-12-01T12:56:49.850Z,4.71
2022-12-01T12:59:58.694Z,4.55
2022-12-01T13:03:20.154Z,4.51
2022-12-01T13:06:35.072Z,4.33
2022-12-01T13:09:42.060Z,4.24
2022-12-01T13:12:52.850Z,4.18
2022-12-01T13:15:57.019Z,4.14
2022-12-01T13:19:13.736Z,3.95
2022-12-01T13:22:18.627Z,4.04
2022-12-01T13:25:38.233Z,3.94
2022-12-01T13:28:47.929Z,3.94
2022-12-01T13:31:51.836Z,3.89
2022-12-01T13:34:54.701Z,3.81
2022-12-01T13:38:13.603Z,3.85
2022-12-01T13:41:19.434Z,3.85
2022-12-01T13:44:30.355Z,3.87
2022-12-01T13:47:54.529Z,3.83
2022-12-01T13:50:59.799Z,3.72
2022-12-01T13:54:05.995Z,3.78
2022-12-01T13:57:12.836Z,3.79
2022-12-01T14:00:24.854Z,3.68
2022-12-01T14:03:39.924Z,3.64
2022-12-01T14:06:49.601Z,3.58
2022-12-01T14:09:54.725Z,3.55
2022-12-01T14:13:04.276Z,3.52
2022-12-01T14:16:08.309Z,3.47
2022-12-01T14:19:27.312Z,3.39
2022-12-01T14:22:43.972Z,3.24
2022-12-01T14:26:12.311Z,3.28
2022-12-01T14:29:34.348Z,3.25
2022-12-01T14:32:36.820Z,3.14
2022-12-01T14:35:39.769Z,3.09
2022-12-01T14:38:42.385Z,3.03
2022-12-01T14:41:55.274Z,2.95
2022-12-01T14:44:58.767Z,2.85
2022-12-01T14:48:05.869Z,2.86
2022-12-01T14:51:11.388Z,2.79
2022-12-01T14:54:22.794Z,2.77
2022-12-01T14:57:35.262Z,2.72
2022-12-01T15:00:38.594Z,2.58
2022-12-01T15:03:43.458Z,2.36
2022-12-01T15:06:46.600Z,2.43
2022-12-01T15:10:00.822Z,2.39
2022-12-01T15:13:30.819Z,2.34
2022-12-01T15:16:40.785Z,2.20
2022-12-01T15:19:44.232Z,2.20
2022-12-01T15:22:46.728Z,2.05
2022-12-01T15:25:49.631Z,1.95
2022-12-01T15:29:05.339Z,1.91
2022-12-01T15:32:09.083Z,1.73
2022-12-01T15:35:21.323Z,1.63
2022-12-01T15:38:30.393Z,1.38
2022-12-01T15:41:34.651Z,1.77
2022-12-01T15:44:37.499Z,1.60
2022-12-01T15:47:45.986Z,1.45
2022-12-01T15:50:59.725Z,1.29
2022-12-01T15:54:02.999Z,1.23
2022-12-01T15:57:06.362Z,1.16
2022-12-01T16:00:21.381Z,1.09
2022-12-01T16:03:24.317Z,0.94
2022-12-01T16:06:35.822Z,1.10
2022-12-01T16:09:44.568Z,1.09
2022-12-01T16:12:47.083Z,1.06
2022-12-01T16:15:49.838Z,1.05
2022-12-01T16:18:54.694Z,1.01
2022-12-01T16:22:02.098Z,1.04
2022-12-01T16:25:04.958Z,1.18
2022-12-01T16:28:22.823Z,1.29
2022-12-01T16:31:26.473Z,1.26
2022-12-01T16:34:45.345Z,1.21
2022-12-01T16:37:48.578Z,1.17
2022-12-01T16:40:53.289Z,1.15
2022-12-01T16:44:26.614Z,1.07
2022-12-01T16:47:21.143Z,1.04
2022-12-01T16:50:23.649Z,0.97
2022-12-01T16:53:26.385Z,0.98
2022-12-01T16:56:28.874Z,0.90
2022-12-01T16:59:32.246Z,0.88
2022-12-01T17:02:34.820Z,0.81
2022-12-01T17:05:37.688Z,0.75
2022-12-01T17:08:40.368Z,0.67
2022-12-01T17:11:43.426Z,0.64
2022-12-01T17:14:45.921Z,0.60
2022-12-01T17:17:49.539Z,0.48
2022-12-01T17:21:18.258Z,0.50
2022-12-01T17:24:21.002Z,0.35
2022-12-01T17:27:25.236Z,0.37
2022-12-01T17:30:28.210Z,0.24
2022-12-01T17:33:31.305Z,0.11
2022-12-01T17:36:34.144Z,0.08
2022-12-01T17:39:36.796Z,0.04
2022-12-01T17:42:39.773Z,-0.04
2022-12-01T17:45:43.004Z,-0.03
2022-12-01T17:48:46.618Z,-0.07
2022-12-01T17:51:49.195Z,0.01
2022-12-01T17:54:52.425Z,0.07
2022-12-01T17:57:55.054Z,0.10
2022-12-01T18:00:57.959Z,0.11
2022-12-01T18:04:01.280Z,0.18
2022-12-01T18:07:03.931Z,0.24
2022-12-01T18:10:07.193Z,0.22
2022-12-01T18:13:09.664Z,0.29
2022-12-01T18:16:16.465Z,0.26
2022-12-01T18:19:20.424Z,0.29
2022-12-01T18:22:23.334Z,0.29
2022-12-01T18:25:26.040Z,0.27
2022-12-01T18:28:29.006Z,0.22
2022-12-01T18:31:33.512Z,0.19
2022-12-01T18:34:36.397Z,0.21
2022-12-01T18:37:40.405Z,0.21
2022-12-01T18:40:43.499Z,0.17
2022-12-01T18:43:46.687Z,0.15
2022-12-01T18:46:49.797Z,0.05
2022-12-01T18:49:52.590Z,0.03
2022-12-01T18:52:55.587Z,-0.05
2022-12-01T18:56:05.488Z,-0.07
2022-12-01T18:59:11.165Z,-0.10
2022-12-01T19:02:14.215Z,-0.07
2022-12-01T19:05:17.328Z,-0.16
2022-12-01T19:08:20.808Z,-0.20
2022-12-01T19:11:24.341Z,-0.18
2022-12-01T19:14:28.284Z,-0.11
2022-12-01T19:17:32.050Z,-0.04
2022-12-01T19:20:37.617Z,-0.04
2022-12-01T19:23:40.576Z,-0.02
2022-12-01T19:26:44.507Z,-0.01
2022-12-01T19:29:47.659Z,0.00
2022-12-01T19:32:50.596Z,0.04
2022-12-01T19:35:53.623Z,0.13
2022-12-01T19:38:58.008Z,0.08
2022-12-01T19:42:01.075Z,0.06
2022-12-01T19:45:04.630Z,0.10
2022-12-01T19:48:07.731Z,0.15
2022-12-01T19:51:25.238Z,0.23
2022-12-01T19:54:30.493Z,0.21
2022-12-01T19:57:33.219Z,0.16
2022-12-01T20:00:36.373Z,0.12
2022-12-01T20:03:41.018Z,0.10
2022-12-01T20:06:43.793Z,0.09
2022-12-01T20:09:51.909Z,0.05
2022-12-01T20:12:54.489Z,0.03
2022-12-01T20:16:02.924Z,0.02
2022-12-01T20:19:06.529Z,-0.01
2022-12-01T20:22:09.352Z,0.00
2022-12-01T20:25:12.081Z,0.02
2022-12-01T20:28:15.124Z,0.03
2022-12-01T20:31:24.539Z,0.03
2022-12-01T20:34:31.021Z,0.05
2022-12-01T20:37:33.880Z,0.06
2022-12-01T20:40:37.070Z,0.08
2022-12-01T20:43:39.935Z,0.11
2022-12-01T20:46:45.880Z,0.11
2022-12-01T20:49:48.711Z,0.12
2022-12-01T20:52:51.726Z,0.12
2022-12-01T20:55:54.733Z,0.11
2022-12-01T20:58:59.596Z,0.09
2022-12-01T21:02:02.212Z,0.10
2022-12-01T21:05:05.754Z,0.10
2022-12-01T21:08:11.180Z,0.09
2022-12-01T21:11:47.742Z,0.08
2022-12-01T21:15:02.499Z,0.10
2022-12-01T21:18:11.012Z,0.03
2022-12-01T21:21:22.646Z,0.05
2022-12-01T21:24:31.966Z,-0.01
2022-12-01T21:27:37.382Z,-0.01
2022-12-01T21:30:40.553Z,-0.04
2022-12-01T21:33:43.235Z,-0.07
2022-12-01T21:36:51.705Z,-0.07
2022-12-01T21:39:56.464Z,-0.13
2022-12-01T21:43:24.473Z,-0.13
2022-12-01T21:46:27.584Z,-0.18
2022-12-01T21:49:39.076Z,-0.26
2022-12-01T21:52:43.061Z,-0.27
2022-12-01T21:55:47.080Z,-0.32
2022-12-01T21:58:49.671Z,-0.41
2022-12-01T22:01:54.241Z,-0.49
2022-12-01T22:04:58.829Z,-0.52
2022-12-01T22:08:19.962Z,-0.54
2022-12-01T22:11:27.292Z,-0.57
2022-12-01T22:14:33.362Z,-0.64
2022-12-01T22:17:36.899Z,-0.67
2022-12-01T22:20:39.414Z,-0.71
2022-12-01T22:23:42.157Z,-0.70
2022-12-01T22:26:50.607Z,-0.69
2022-12-01T22:30:06.570Z,-0.71
2022-12-01T22:33:35.459Z,-0.72
2022-12-01T22:36:38.284Z,-0.77
2022-12-01T22:39:41.777Z,-0.79
2022-12-01T22:42:44.626Z,-0.81
2022-12-01T22:45:49.273Z,-0.84
2022-12-01T22:48:57.095Z,-0.91
2022-12-01T22:52:06.939Z,-0.97
2022-12-01T22:55:15.299Z,-1.04
2022-12-01T22:58:28.287Z,-1.07
2022-12-01T23:01:33.922Z,-1.14
2022-12-01T23:04:41.316Z,-1.14
2022-12-01T23:07:45.932Z,-1.14
2022-12-01T23:10:48.583Z,-1.18
2022-12-01T23:13:51.290Z,-1.25
2022-12-01T23:17:04.727Z,-1.30
2022-12-01T23:20:10.255Z,-1.35
2022-12-01T23:23:15.258Z,-1.34
2022-12-01T23:26:17.988Z,-1.32
2022-12-01T23:29:20.656Z,-1.48
2022-12-01T23:32:23.547Z,-1.51
2022-12-01T23:35:26.015Z,-1.54
2022-12-01T23:38:30.189Z,-1.58
2022-12-01T23:41:41.490Z,-1.68
2022-12-01T23:44:47.478Z,-1.72
2022-12-01T23:47:50.567Z,-1.74
2022-12-01T23:50:54.199Z,-1.62
2022-12-01T23:53:57.711Z,-1.54
2022-12-01T23:57:11.658Z,-1.47
